sensor_id;sensor_type;location;lat;lon;timestamp;pressure;altitude;pressure_sealevel;temperature;humidity
18749;BME280;9503;53.560;10.246;2023-03-01T07:02:33;102382.03;;;2.20;100.00
18749;BME280;9503;53.560;10.246;2023-03-01T07:04:59;102373.78;;;2.62;100.00
18749;BME280;9503;53.560;10.246;2023-03-01T07:07:26;102375.59;;;2.31;100.00
18749;BME280;9503;53.560;10.246;2023-03-01T07:09:53;102379.59;;;2.29;100.00
18749;BME280;9503;53.560;10.246;2023-03-01T07:12:19;102378.47;;;2.50;100.00
18749;BME280;9503;53.560;10.246;2023-03-01T07:14:46;102374.28;;;2.82;100.00
18749;BME280;9503;53.560;10.246;2023-03-01T07:17:13;102366.53;;;2.81;100.00
18749;BME280;9503;53.560;10.246;2023-03-01T07:19:40;102366.75;;;3.15;100.00
18749;BME280;9503;53.560;10.246;2023-03-01T07:22:07;102370.16;;;3.31;100.00
18749;BME280;9503;53.560;10.246;2023-03-01T07:24:34;102363.22;;;3.22;100.00
18749;BME280;9503;53.560;10.246;2023-03-01T07:27:01;102362.97;;;3.27;100.00
18749;BME280;9503;53.560;10.246;2023-03-01T07:29:27;102365.91;;;3.48;100.00
18749;BME280;9503;53.560;10.246;2023-03-01T07:31:55;102366.00;;;3.65;100.00
18749;BME280;9503;53.560;10.246;2023-03-01T07:34:21;102360.88;;;3.90;100.00
18749;BME280;9503;53.560;10.246;2023-03-01T07:36:49;102369.03;;;4.20;100.00
18749;BME280;9503;53.560;10.246;2023-03-01T07:39:16;102365.63;;;4.46;100.00
18749;BME280;9503;53.560;10.246;2023-03-01T07:41:42;102370.56;;;4.61;100.00
18749;BME280;9503;53.560;10.246;2023-03-01T07:44:09;102376.56;;;4.70;100.00
18749;BME280;9503;53.560;10.246;2023-03-01T07:46:36;102375.47;;;5.29;100.00
18749;BME280;9503;53.560;10.246;2023-03-01T07:49:02;102361.03;;;5.55;100.00
18749;BME280;9503;53.560;10.246;2023-03-01T07:51:29;102365.84;;;6.44;98.80
18749;BME280;9503;53.560;10.246;2023-03-01T07:53:57;102362.91;;;6.77;92.33
18749;BME280;9503;53.560;10.246;2023-03-01T07:56:24;102355.00;;;6.55;88.92
18749;BME280;9503;53.560;10.246;2023-03-01T07:58:51;102363.16;;;6.42;88.92
18749;BME280;9503;53.560;10.246;2023-03-01T08:01:19;102371.13;;;6.18;88.74
18749;BME280;9503;53.560;10.246;2023-03-01T08:03:46;102365.31;;;6.10;88.52
18749;BME280;9503;53.560;10.246;2023-03-01T08:06:15;102373.13;;;5.67;89.73
18749;BME280;9503;53.560;10.246;2023-03-01T08:08:42;102377.16;;;5.03;92.54
18749;BME280;9503;53.560;10.246;2023-03-01T08:11:12;102385.19;;;5.24;92.59
18749;BME280;9503;53.560;10.246;2023-03-01T08:13:40;102377.47;;;4.80;97.16
18749;BME280;9503;53.560;10.246;2023-03-01T08:16:09;102384.16;;;5.14;98.43
18749;BME280;9503;53.560;10.246;2023-03-01T08:18:36;102380.78;;;6.03;95.30
18749;BME280;9503;53.560;10.246;2023-03-01T08:21:04;102384.09;;;5.93;92.77
18749;BME280;9503;53.560;10.246;2023-03-01T08:23:30;102381.19;;;6.07;93.81
18749;BME280;9503;53.560;10.246;2023-03-01T08:26:04;102385.00;;;6.21;94.26
18749;BME280;9503;53.560;10.246;2023-03-01T08:28:32;102382.78;;;6.43;91.77
18749;BME280;9503;53.560;10.246;2023-03-01T08:30:59;102378.22;;;5.58;94.53
18749;BME280;9503;53.560;10.246;2023-03-01T08:33:26;102386.84;;;5.77;96.58
18749;BME280;9503;53.560;10.246;2023-03-01T08:36:01;102384.38;;;6.51;93.92
18749;BME280;9503;53.560;10.246;2023-03-01T08:38:28;102382.03;;;6.82;91.00
18749;BME280;9503;53.560;10.246;2023-03-01T08:40:54;102374.53;;;6.64;90.50
18749;BME280;9503;53.560;10.246;2023-03-01T08:43:21;102380.47;;;6.55;90.97
18749;BME280;9503;53.560;10.246;2023-03-01T08:45:51;102375.59;;;6.20;92.52
18749;BME280;9503;53.560;10.246;2023-03-01T08:48:18;102373.00;;;6.67;92.75
18749;BME280;9503;53.560;10.246;2023-03-01T08:50:44;102380.53;;;6.84;90.61
18749;BME280;9503;53.560;10.246;2023-03-01T08:53:11;102378.88;;;6.65;91.67
18749;BME280;9503;53.560;10.246;2023-03-01T08:55:37;102375.06;;;6.33;93.28
18749;BME280;9503;53.560;10.246;2023-03-01T08:58:05;102375.78;;;6.41;93.60
18749;BME280;9503;53.560;10.246;2023-03-01T09:00:31;102378.97;;;6.76;92.92
18749;BME280;9503;53.560;10.246;2023-03-01T09:03:01;102382.88;;;6.91;92.12
18749;BME280;9503;53.560;10.246;2023-03-01T09:05:28;102384.88;;;7.33;89.37
18749;BME280;9503;53.560;10.246;2023-03-01T09:07:57;102381.16;;;7.68;87.61
18749;BME280;9503;53.560;10.246;2023-03-01T09:10:23;102385.19;;;7.56;87.83
18749;BME280;9503;53.560;10.246;2023-03-01T09:12:51;102380.53;;;7.71;87.73
18749;BME280;9503;53.560;10.246;2023-03-01T09:15:17;102377.78;;;7.98;86.29
18749;BME280;9503;53.560;10.246;2023-03-01T09:17:44;102381.28;;;7.70;85.89
18749;BME280;9503;53.560;10.246;2023-03-01T09:20:12;102376.38;;;7.82;86.55
18749;BME280;9503;53.560;10.246;2023-03-01T09:22:39;102377.25;;;7.82;86.10
18749;BME280;9503;53.560;10.246;2023-03-01T09:25:06;102376.13;;;7.89;85.74
18749;BME280;9503;53.560;10.246;2023-03-01T09:27:33;102376.88;;;7.88;85.32
18749;BME280;9503;53.560;10.246;2023-03-01T09:29:59;102372.56;;;7.97;84.80
18749;BME280;9503;53.560;10.246;2023-03-01T09:32:26;102383.53;;;7.17;87.76
18749;BME280;9503;53.560;10.246;2023-03-01T09:34:52;102378.25;;;7.74;89.17
18749;BME280;9503;53.560;10.246;2023-03-01T09:37:31;102380.47;;;7.90;87.49
18749;BME280;9503;53.560;10.246;2023-03-01T09:39:59;102378.50;;;7.67;90.09
18749;BME280;9503;53.560;10.246;2023-03-01T09:42:26;102381.28;;;7.60;90.46
18749;BME280;9503;53.560;10.246;2023-03-01T09:44:57;102380.63;;;7.52;91.93
18749;BME280;9503;53.560;10.246;2023-03-01T09:47:28;102372.16;;;7.43;93.29
18749;BME280;9503;53.560;10.246;2023-03-01T09:50:02;102373.63;;;7.70;93.50
18749;BME280;9503;53.560;10.246;2023-03-01T09:52:38;102369.41;;;7.60;93.99
18749;BME280;9503;53.560;10.246;2023-03-01T09:55:09;102366.91;;;7.81;92.60
18749;BME280;9503;53.560;10.246;2023-03-01T09:57:41;102369.94;;;7.66;91.54
18749;BME280;9503;53.560;10.246;2023-03-01T10:00:16;102366.94;;;7.91;91.78
18749;BME280;9503;53.560;10.246;2023-03-01T10:02:49;102383.69;;;8.18;92.32
18749;BME280;9503;53.560;10.246;2023-03-01T10:05:34;102381.75;;;7.95;92.51
18749;BME280;9503;53.560;10.246;2023-03-01T10:08:19;102378.47;;;8.16;91.99
18749;BME280;9503;53.560;10.246;2023-03-01T10:10:51;102371.59;;;8.46;92.28
18749;BME280;9503;53.560;10.246;2023-03-01T10:13:21;102375.13;;;8.78;90.36
18749;BME280;9503;53.560;10.246;2023-03-01T10:15:53;102367.50;;;8.68;89.84
18749;BME280;9503;53.560;10.246;2023-03-01T10:18:23;102373.31;;;8.98;88.49
18749;BME280;9503;53.560;10.246;2023-03-01T10:20:53;102377.38;;;8.96;87.23
18749;BME280;9503;53.560;10.246;2023-03-01T10:23:24;102379.44;;;9.32;85.58
18749;BME280;9503;53.560;10.246;2023-03-01T10:26:05;102365.59;;;9.40;85.43
18749;BME280;9503;53.560;10.246;2023-03-01T10:28:42;102362.16;;;8.45;89.50
18749;BME280;9503;53.560;10.246;2023-03-01T10:31:13;102362.75;;;8.83;89.95
18749;BME280;9503;53.560;10.246;2023-03-01T10:33:41;102371.72;;;9.10;88.87
18749;BME280;9503;53.560;10.246;2023-03-01T10:36:07;102369.31;;;9.01;89.04
18749;BME280;9503;53.560;10.246;2023-03-01T10:38:49;102360.19;;;8.83;88.49
18749;BME280;9503;53.560;10.246;2023-03-01T10:41:19;102354.47;;;8.55;91.30
18749;BME280;9503;53.560;10.246;2023-03-01T10:43:50;102355.75;;;9.02;90.11
18749;BME280;9503;53.560;10.246;2023-03-01T10:46:26;102360.03;;;8.92;90.28
18749;BME280;9503;53.560;10.246;2023-03-01T10:49:13;102365.59;;;9.08;90.52
18749;BME280;9503;53.560;10.246;2023-03-01T10:51:42;102361.34;;;8.76;91.79
18749;BME280;9503;53.560;10.246;2023-03-01T10:54:18;102357.00;;;8.65;92.56
18749;BME280;9503;53.560;10.246;2023-03-01T10:56:47;102351.63;;;8.52;93.58
18749;BME280;9503;53.560;10.246;2023-03-01T10:59:22;102351.00;;;8.75;93.59
18749;BME280;9503;53.560;10.246;2023-03-01T11:02:03;102350.97;;;8.85;93.85
18749;BME280;9503;53.560;10.246;2023-03-01T11:04:30;102347.34;;;8.93;92.64
18749;BME280;9503;53.560;10.246;2023-03-01T11:07:01;102337.94;;;9.14;91.49
18749;BME280;9503;53.560;10.246;2023-03-01T11:09:33;102336.19;;;9.03;92.61
18749;BME280;9503;53.560;10.246;2023-03-01T11:12:05;102337.22;;;9.05;90.91
18749;BME280;9503;53.560;10.246;2023-03-01T11:14:46;102338.66;;;9.33;90.53
18749;BME280;9503;53.560;10.246;2023-03-01T11:17:17;102331.03;;;9.67;88.59
18749;BME280;9503;53.560;10.246;2023-03-01T11:20:00;102334.25;;;9.86;87.21
18749;BME280;9503;53.560;10.246;2023-03-01T11:22:30;102341.81;;;9.63;87.55
18749;BME280;9503;53.560;10.246;2023-03-01T11:25:01;102339.03;;;10.15;85.69
18749;BME280;9503;53.560;10.246;2023-03-01T11:27:31;102337.53;;;10.29;83.49
18749;BME280;9503;53.560;10.246;2023-03-01T11:30:00;102333.09;;;10.38;83.37
18749;BME280;9503;53.560;10.246;2023-03-01T11:32:34;102334.13;;;10.52;84.37
18749;BME280;9503;53.560;10.246;2023-03-01T11:35:05;102326.63;;;10.43;83.16
18749;BME280;9503;53.560;10.246;2023-03-01T11:37:40;102326.84;;;10.46;83.41
18749;BME280;9503;53.560;10.246;2023-03-01T11:40:16;102321.50;;;10.43;84.03
18749;BME280;9503;53.560;10.246;2023-03-01T11:42:54;102320.09;;;9.91;86.65
18749;BME280;9503;53.560;10.246;2023-03-01T11:45:24;102322.59;;;10.35;85.45
18749;BME280;9503;53.560;10.246;2023-03-01T11:48:05;102313.47;;;11.09;82.33
18749;BME280;9503;53.560;10.246;2023-03-01T11:50:39;102317.09;;;11.36;80.53
18749;BME280;9503;53.560;10.246;2023-03-01T11:53:28;102309.88;;;11.07;80.46
18749;BME280;9503;53.560;10.246;2023-03-01T11:56:13;102307.72;;;11.37;79.08
18749;BME280;9503;53.560;10.246;2023-03-01T11:58:58;102309.19;;;11.95;77.92
18749;BME280;9503;53.560;10.246;2023-03-01T12:01:37;102309.75;;;12.15;74.29
18749;BME280;9503;53.560;10.246;2023-03-01T12:07:10;102298.44;;;11.75;75.91
18749;BME280;9503;53.560;10.246;2023-03-01T12:09:49;102304.13;;;11.71;75.79
18749;BME280;9503;53.560;10.246;2023-03-01T12:12:30;102295.63;;;12.22;73.02
18749;BME280;9503;53.560;10.246;2023-03-01T12:18:13;102310.41;;;12.51;72.73
18749;BME280;9503;53.560;10.246;2023-03-01T12:20:49;102299.91;;;11.97;72.53
18749;BME280;9503;53.560;10.246;2023-03-01T12:23:34;102296.25;;;11.93;73.65
18749;BME280;9503;53.560;10.246;2023-03-01T12:26:10;102287.97;;;12.10;75.01
18749;BME280;9503;53.560;10.246;2023-03-01T12:29:15;102288.09;;;12.12;74.31
18749;BME280;9503;53.560;10.246;2023-03-01T12:37:31;102269.94;;;12.88;70.87
18749;BME280;9503;53.560;10.246;2023-03-01T12:40:16;102264.81;;;12.35;69.57
18749;BME280;9503;53.560;10.246;2023-03-01T12:42:54;102262.00;;;12.06;70.35
18749;BME280;9503;53.560;10.246;2023-03-01T12:45:45;102255.19;;;11.81;72.80
18749;BME280;9503;53.560;10.246;2023-03-01T12:48:27;102252.47;;;11.92;74.08
18749;BME280;9503;53.560;10.246;2023-03-01T12:50:59;102246.78;;;11.59;73.74
18749;BME280;9503;53.560;10.246;2023-03-01T12:53:31;102244.34;;;11.24;75.95
18749;BME280;9503;53.560;10.246;2023-03-01T12:56:01;102238.97;;;11.57;74.54
18749;BME280;9503;53.560;10.246;2023-03-01T12:58:32;102236.03;;;11.65;74.65
18749;BME280;9503;53.560;10.246;2023-03-01T13:01:25;102228.09;;;11.37;73.42
18749;BME280;9503;53.560;10.246;2023-03-01T13:04:05;102227.66;;;11.05;74.20
18749;BME280;9503;53.560;10.246;2023-03-01T13:06:38;102228.88;;;11.11;70.93
18749;BME280;9503;53.560;10.246;2023-03-01T13:11:46;102221.53;;;11.40;75.03
18749;BME280;9503;53.560;10.246;2023-03-01T13:14:35;102221.97;;;11.59;72.70
18749;BME280;9503;53.560;10.246;2023-03-01T13:17:02;102234.00;;;11.97;70.54
18749;BME280;9503;53.560;10.246;2023-03-01T13:19:29;102213.88;;;11.67;71.56
18749;BME280;9503;53.560;10.246;2023-03-01T13:21:57;102221.53;;;11.78;70.54
18749;BME280;9503;53.560;10.246;2023-03-01T13:24:29;102220.84;;;12.32;68.95
18749;BME280;9503;53.560;10.246;2023-03-01T13:27:09;102220.09;;;12.20;69.17
18749;BME280;9503;53.560;10.246;2023-03-01T13:29:44;102221.41;;;11.88;71.96
18749;BME280;9503;53.560;10.246;2023-03-01T13:32:21;102220.22;;;11.83;70.85
18749;BME280;9503;53.560;10.246;2023-03-01T13:34:56;102220.53;;;12.01;70.50
18749;BME280;9503;53.560;10.246;2023-03-01T13:37:34;102212.34;;;11.69;69.77
18749;BME280;9503;53.560;10.246;2023-03-01T13:40:57;102212.34;;;11.07;71.49
18749;BME280;9503;53.560;10.246;2023-03-01T13:43:29;102203.84;;;11.70;70.16
18749;BME280;9503;53.560;10.246;2023-03-01T13:45:57;102210.34;;;12.03;67.78
18749;BME280;9503;53.560;10.246;2023-03-01T13:48:28;102206.31;;;12.06;68.39
18749;BME280;9503;53.560;10.246;2023-03-01T13:50:58;102209.94;;;11.97;69.53
18749;BME280;9503;53.560;10.246;2023-03-01T13:53:30;102201.47;;;12.37;67.28
18749;BME280;9503;53.560;10.246;2023-03-01T13:56:00;102207.03;;;12.30;67.43
18749;BME280;9503;53.560;10.246;2023-03-01T13:58:29;102199.19;;;11.39;70.30
18749;BME280;9503;53.560;10.246;2023-03-01T14:00:59;102197.88;;;11.32;70.20
18749;BME280;9503;53.560;10.246;2023-03-01T14:03:28;102198.06;;;11.11;70.75
18749;BME280;9503;53.560;10.246;2023-03-01T14:06:04;102198.41;;;11.40;70.27
18749;BME280;9503;53.560;10.246;2023-03-01T14:08:34;102192.81;;;12.77;65.77
18749;BME280;9503;53.560;10.246;2023-03-01T14:11:30;102192.72;;;13.16;62.91
18749;BME280;9503;53.560;10.246;2023-03-01T14:14:18;102189.41;;;13.60;59.83
18749;BME280;9503;53.560;10.246;2023-03-01T14:16:58;102175.72;;;13.61;59.20
18749;BME280;9503;53.560;10.246;2023-03-01T14:19:29;102179.00;;;13.03;60.85
18749;BME280;9503;53.560;10.246;2023-03-01T14:21:59;102177.50;;;12.78;60.54
18749;BME280;9503;53.560;10.246;2023-03-01T14:24:29;102174.94;;;13.34;60.08
18749;BME280;9503;53.560;10.246;2023-03-01T14:26:58;102175.19;;;13.81;56.63
18749;BME280;9503;53.560;10.246;2023-03-01T14:29:29;102166.72;;;13.99;56.13
18749;BME280;9503;53.560;10.246;2023-03-01T14:32:12;102170.59;;;12.92;57.92
18749;BME280;9503;53.560;10.246;2023-03-01T14:34:44;102166.56;;;13.66;57.11
18749;BME280;9503;53.560;10.246;2023-03-01T14:37:18;102171.78;;;13.53;56.19
18749;BME280;9503;53.560;10.246;2023-03-01T14:39:45;102175.66;;;12.49;57.89
18749;BME280;9503;53.560;10.246;2023-03-01T14:42:13;102170.47;;;12.62;57.93
18749;BME280;9503;53.560;10.246;2023-03-01T14:44:42;102167.22;;;12.78;58.04
18749;BME280;9503;53.560;10.246;2023-03-01T14:47:12;102161.13;;;12.36;59.54
18749;BME280;9503;53.560;10.246;2023-03-01T14:49:39;102155.19;;;12.51;58.99
18749;BME280;9503;53.560;10.246;2023-03-01T14:52:18;102157.97;;;12.82;58.04
18749;BME280;9503;53.560;10.246;2023-03-01T14:54:48;102154.88;;;12.59;57.56
18749;BME280;9503;53.560;10.246;2023-03-01T14:57:16;102148.50;;;12.67;57.82
18749;BME280;9503;53.560;10.246;2023-03-01T14:59:43;102142.41;;;13.21;56.00
18749;BME280;9503;53.560;10.246;2023-03-01T15:02:13;102137.50;;;12.15;57.58
18749;BME280;9503;53.560;10.246;2023-03-01T15:04:43;102139.50;;;11.30;58.88
18749;BME280;9503;53.560;10.246;2023-03-01T15:07:13;102136.31;;;11.21;61.77
18749;BME280;9503;53.560;10.246;2023-03-01T15:09:40;102126.09;;;12.25;58.80
18749;BME280;9503;53.560;10.246;2023-03-01T15:12:36;102129.69;;;12.68;58.15
18749;BME280;9503;53.560;10.246;2023-03-01T15:15:19;102132.28;;;12.68;57.46
18749;BME280;9503;53.560;10.246;2023-03-01T15:17:51;102135.69;;;13.23;56.91
18749;BME280;9503;53.560;10.246;2023-03-01T15:20:20;102131.56;;;12.30;57.56
18749;BME280;9503;53.560;10.246;2023-03-01T15:22:53;102125.50;;;12.84;56.76
18749;BME280;9503;53.560;10.246;2023-03-01T15:25:23;102123.38;;;11.57;58.88
18749;BME280;9503;53.560;10.246;2023-03-01T15:27:52;102121.56;;;11.43;59.17
18749;BME280;9503;53.560;10.246;2023-03-01T15:30:21;102123.72;;;11.37;59.55
18749;BME280;9503;53.560;10.246;2023-03-01T15:33:16;102116.06;;;11.63;60.16
18749;BME280;9503;53.560;10.246;2023-03-01T15:35:45;102125.50;;;11.38;60.81
18749;BME280;9503;53.560;10.246;2023-03-01T15:38:32;102119.53;;;11.26;61.95
18749;BME280;9503;53.560;10.246;2023-03-01T15:41:01;102119.84;;;11.30;61.61
18749;BME280;9503;53.560;10.246;2023-03-01T15:43:40;102125.13;;;11.45;61.42
18749;BME280;9503;53.560;10.246;2023-03-01T15:46:22;102114.56;;;10.54;64.57
18749;BME280;9503;53.560;10.246;2023-03-01T15:48:53;102120.94;;;10.84;64.71
18749;BME280;9503;53.560;10.246;2023-03-01T15:51:27;102122.84;;;10.38;66.33
18749;BME280;9503;53.560;10.246;2023-03-01T15:54:00;102120.72;;;9.86;69.03
18749;BME280;9503;53.560;10.246;2023-03-01T15:56:27;102117.97;;;10.06;68.56
18749;BME280;9503;53.560;10.246;2023-03-01T15:58:58;102115.72;;;10.11;68.13
18749;BME280;9503;53.560;10.246;2023-03-01T16:01:24;102118.50;;;10.02;68.17
18749;BME280;9503;53.560;10.246;2023-03-01T16:03:51;102118.19;;;10.33;67.50
18749;BME280;9503;53.560;10.246;2023-03-01T16:06:19;102114.56;;;10.54;66.57
18749;BME280;9503;53.560;10.246;2023-03-01T16:08:45;102116.44;;;10.57;66.92
18749;BME280;9503;53.560;10.246;2023-03-01T16:11:16;102112.38;;;10.12;68.52
18749;BME280;9503;53.560;10.246;2023-03-01T16:13:43;102120.50;;;9.71;71.19
18749;BME280;9503;53.560;10.246;2023-03-01T16:16:11;102121.94;;;9.56;73.18
18749;BME280;9503;53.560;10.246;2023-03-01T16:18:40;102114.19;;;8.99;75.52
18749;BME280;9503;53.560;10.246;2023-03-01T16:21:11;102115.88;;;8.44;78.92
18749;BME280;9503;53.560;10.246;2023-03-01T16:23:38;102121.56;;;8.30;81.11
18749;BME280;9503;53.560;10.246;2023-03-01T16:26:05;102124.91;;;8.19;82.47
18749;BME280;9503;53.560;10.246;2023-03-01T16:28:33;102116.44;;;7.88;84.24
18749;BME280;9503;53.560;10.246;2023-03-01T16:30:59;102115.84;;;7.60;84.21
18749;BME280;9503;53.560;10.246;2023-03-01T16:33:26;102114.84;;;7.37;86.05
18749;BME280;9503;53.560;10.246;2023-03-01T16:35:53;102115.75;;;7.28;87.30
18749;BME280;9503;53.560;10.246;2023-03-01T16:38:19;102117.34;;;6.97;89.89
18749;BME280;9503;53.560;10.246;2023-03-01T16:40:48;102114.69;;;6.95;91.91
18749;BME280;9503;53.560;10.246;2023-03-01T16:43:15;102117.75;;;6.91;92.29
18749;BME280;9503;53.560;10.246;2023-03-01T16:45:43;102112.09;;;6.75;92.66
18749;BME280;9503;53.560;10.246;2023-03-01T16:48:11;102117.41;;;6.68;93.77
18749;BME280;9503;53.560;10.246;2023-03-01T16:50:38;102114.81;;;6.47;95.52
18749;BME280;9503;53.560;10.246;2023-03-01T16:53:05;102114.16;;;6.40;96.95
18749;BME280;9503;53.560;10.246;2023-03-01T16:55:31;102125.84;;;6.08;100.00
18749;BME280;9503;53.560;10.246;2023-03-01T16:57:58;102126.56;;;5.97;100.00
18749;BME280;9503;53.560;10.246;2023-03-01T17:00:25;102120.97;;;5.82;100.00
18749;BME280;9503;53.560;10.246;2023-03-01T17:02:53;102125.91;;;5.81;100.00
18749;BME280;9503;53.560;10.246;2023-03-01T17:05:20;102126.63;;;5.42;100.00
18749;BME280;9503;53.560;10.246;2023-03-01T17:07:49;102126.31;;;5.48;100.00
18749;BME280;9503;53.560;10.246;2023-03-01T17:10:15;102130.19;;;5.25;100.00
18749;BME280;9503;53.560;10.246;2023-03-01T17:12:42;102131.88;;;5.16;100.00
18749;BME280;9503;53.560;10.246;2023-03-01T17:15:09;102135.19;;;5.15;100.00
18749;BME280;9503;53.560;10.246;2023-03-01T17:17:37;102130.72;;;4.77;100.00
18749;BME280;9503;53.560;10.246;2023-03-01T17:20:06;102140.50;;;4.55;100.00
18749;BME280;9503;53.560;10.246;2023-03-01T17:22:32;102136.06;;;4.43;100.00
18749;BME280;9503;53.560;10.246;2023-03-01T17:24:59;102138.94;;;4.21;100.00
18749;BME280;9503;53.560;10.246;2023-03-01T17:27:26;102148.66;;;4.16;100.00
18749;BME280;9503;53.560;10.246;2023-03-01T17:29:52;102151.19;;;4.07;100.00
18749;BME280;9503;53.560;10.246;2023-03-01T17:32:19;102149.56;;;3.99;100.00
18749;BME280;9503;53.560;10.246;2023-03-01T17:34:46;102152.72;;;3.97;100.00
18749;BME280;9503;53.560;10.246;2023-03-01T17:37:14;102151.19;;;3.81;100.00
18749;BME280;9503;53.560;10.246;2023-03-01T17:39:40;102150.91;;;3.70;100.00
18749;BME280;9503;53.560;10.246;2023-03-01T17:42:07;102151.66;;;3.60;100.00
18749;BME280;9503;53.560;10.246;2023-03-01T17:44:34;102148.19;;;3.59;100.00
18749;BME280;9503;53.560;10.246;2023-03-01T17:47:01;102159.66;;;3.47;100.00
18749;BME280;9503;53.560;10.246;2023-03-01T17:49:29;102149.06;;;3.43;100.00
18749;BME280;9503;53.560;10.246;2023-03-01T17:51:55;102155.75;;;3.33;100.00
18749;BME280;9503;53.560;10.246;2023-03-01T17:54:24;102147.81;;;3.22;100.00
18749;BME280;9503;53.560;10.246;2023-03-01T17:56:51;102156.63;;;3.25;100.00
18749;BME280;9503;53.560;10.246;2023-03-01T17:59:18;102153.19;;;3.16;100.00
